createdAt,value
2022-09-26T00:01:36.727Z,13.30
2022-09-26T00:04:10.199Z,13.40
2022-09-26T00:06:37.148Z,13.30
2022-09-26T00:09:05.573Z,13.50
2022-09-26T00:11:34.071Z,13.20
2022-09-26T00:14:05.292Z,13.20
2022-09-26T00:16:32.737Z,13.20
2022-09-26T00:19:00.099Z,13.20
2022-09-26T00:21:29.765Z,13.20
2022-09-26T00:23:58.214Z,13.20
2022-09-26T00:26:26.975Z,13.20
2022-09-26T00:28:54.146Z,13.20
2022-09-26T00:31:29.621Z,13.20
2022-09-26T00:33:59.335Z,13.20
2022-09-26T00:36:37.557Z,13.20
2022-09-26T00:39:10.875Z,13.20
2022-09-26T00:41:38.619Z,13.20
2022-09-26T00:44:43.280Z,13.10
2022-09-26T00:47:25.201Z,13.10
2022-09-26T00:50:03.641Z,13.10
2022-09-26T00:52:58.643Z,13.00
2022-09-26T00:55:35.041Z,12.90
2022-09-26T00:58:30.929Z,12.90
2022-09-26T01:01:00.740Z,12.80
2022-09-26T01:03:31.283Z,12.80
2022-09-26T01:05:59.783Z,12.80
2022-09-26T01:08:42.667Z,12.80
2022-09-26T01:11:16.156Z,12.80
2022-09-26T01:13:44.901Z,12.80
2022-09-26T01:16:11.887Z,12.80
2022-09-26T01:18:39.166Z,12.80
2022-09-26T01:21:27.496Z,12.80
2022-09-26T01:24:27.853Z,13.00
2022-09-26T01:27:00.707Z,12.90
2022-09-26T01:30:10.225Z,12.90
2022-09-26T01:33:01.516Z,12.90
2022-09-26T01:35:48.562Z,12.90
2022-09-26T01:38:48.378Z,12.90
2022-09-26T01:41:28.195Z,12.90
2022-09-26T01:44:04.846Z,12.90
2022-09-26T01:47:00.478Z,13.00
2022-09-26T01:49:53.465Z,13.00
2022-09-26T01:52:59.481Z,13.00
2022-09-26T01:55:36.609Z,13.00
2022-09-26T01:58:09.244Z,13.00
2022-09-26T02:00:39.769Z,12.90
2022-09-26T02:03:12.362Z,12.90
2022-09-26T02:05:47.532Z,12.90
2022-09-26T02:08:18.784Z,13.00
2022-09-26T02:11:10.786Z,13.00
2022-09-26T02:13:55.532Z,12.90
2022-09-26T02:16:37.297Z,12.90
2022-09-26T02:19:24.063Z,12.90
2022-09-26T02:21:51.614Z,12.90
2022-09-26T02:24:18.932Z,12.90
2022-09-26T02:26:46.533Z,13.00
2022-09-26T02:29:15.676Z,13.00
2022-09-26T02:31:50.943Z,13.00
2022-09-26T02:34:18.581Z,13.00
2022-09-26T02:36:49.276Z,13.00
2022-09-26T02:39:18.235Z,13.00
2022-09-26T02:41:58.481Z,13.00
2022-09-26T02:44:31.015Z,13.00
2022-09-26T02:47:19.859Z,13.00
2022-09-26T02:50:02.414Z,13.00
2022-09-26T02:53:08.061Z,13.00
2022-09-26T02:55:55.347Z,13.00
2022-09-26T02:58:38.829Z,12.90
2022-09-26T03:01:26.002Z,12.90
2022-09-26T03:04:02.684Z,12.90
2022-09-26T03:06:44.419Z,12.90
2022-09-26T03:09:13.065Z,13.00
2022-09-26T03:11:42.978Z,13.00
2022-09-26T03:14:12.228Z,12.90
2022-09-26T03:16:43.550Z,13.00
2022-09-26T03:19:18.475Z,12.90
2022-09-26T03:21:45.973Z,12.90
2022-09-26T03:24:14.780Z,12.80
2022-09-26T03:26:43.829Z,13.00
2022-09-26T03:29:10.707Z,12.90
2022-09-26T03:31:37.631Z,12.80
2022-09-26T03:34:06.521Z,12.90
2022-09-26T03:36:34.738Z,12.90
2022-09-26T03:39:03.621Z,12.90
2022-09-26T03:41:52.326Z,12.90
2022-09-26T03:44:26.458Z,12.80
2022-09-26T03:47:13.674Z,12.80
2022-09-26T03:49:42.757Z,12.80
2022-09-26T03:52:13.442Z,12.80
2022-09-26T03:54:44.542Z,12.80
2022-09-26T03:57:13.039Z,12.80
2022-09-26T03:59:49.764Z,12.70
2022-09-26T04:02:17.860Z,12.80
2022-09-26T04:04:48.757Z,12.80
2022-09-26T04:07:16.362Z,12.60
2022-09-26T04:09:43.102Z,12.80
2022-09-26T04:12:11.296Z,12.80
2022-09-26T04:14:43.434Z,12.80
2022-09-26T04:17:10.862Z,12.70
2022-09-26T04:19:42.316Z,12.70
2022-09-26T04:22:09.891Z,12.70
2022-09-26T04:24:37.834Z,12.70
2022-09-26T04:27:06.484Z,12.70
2022-09-26T04:29:33.838Z,12.80
2022-09-26T04:32:19.497Z,12.80
2022-09-26T04:35:06.690Z,12.80
2022-09-26T04:37:37.009Z,12.80
2022-09-26T04:40:04.637Z,12.70
2022-09-26T04:42:36.798Z,12.80
2022-09-26T04:45:05.349Z,12.70
2022-09-26T04:47:32.742Z,12.70
2022-09-26T04:50:22.607Z,12.70
2022-09-26T04:53:06.347Z,12.80
2022-09-26T04:55:37.362Z,12.70
2022-09-26T04:58:08.697Z,12.80
2022-09-26T05:00:52.171Z,12.80
2022-09-26T05:03:37.990Z,12.80
2022-09-26T05:09:07.004Z,12.70
2022-09-26T05:11:48.719Z,12.70
2022-09-26T05:14:18.359Z,12.70
2022-09-26T05:16:49.943Z,12.70
2022-09-26T05:19:21.685Z,12.70
2022-09-26T05:22:11.334Z,12.70
2022-09-26T05:25:00.284Z,12.70
2022-09-26T05:27:37.961Z,12.70
2022-09-26T05:30:07.908Z,12.70
2022-09-26T05:32:57.882Z,12.70
2022-09-26T05:35:25.824Z,12.70
2022-09-26T05:38:06.193Z,12.70
2022-09-26T05:40:59.627Z,12.70
2022-09-26T05:43:33.290Z,12.80
2022-09-26T05:46:07.764Z,12.80
2022-09-26T05:48:39.801Z,12.80
2022-09-26T05:51:16.883Z,12.80
2022-09-26T05:53:45.957Z,12.80
2022-09-26T05:56:19.029Z,12.80
2022-09-26T05:59:05.355Z,12.80
2022-09-26T06:01:35.468Z,12.90
2022-09-26T06:04:14.873Z,12.90
2022-09-26T06:07:00.129Z,12.90
2022-09-26T06:09:26.922Z,12.90
2022-09-26T06:12:11.644Z,13.00
2022-09-26T06:14:38.771Z,13.00
2022-09-26T06:17:05.540Z,13.00
2022-09-26T06:19:32.526Z,13.00
2022-09-26T06:21:59.328Z,13.10
2022-09-26T06:24:26.197Z,13.00
2022-09-26T06:26:57.717Z,13.10
2022-09-26T06:29:24.586Z,13.00
2022-09-26T06:31:51.484Z,13.20
2022-09-26T06:34:36.997Z,13.00
2022-09-26T06:37:23.291Z,13.00
2022-09-26T06:39:51.538Z,13.00
2022-09-26T06:42:21.043Z,13.00
2022-09-26T06:44:58.107Z,13.00
2022-09-26T06:47:25.183Z,13.00
2022-09-26T06:50:10.553Z,13.00
2022-09-26T06:52:42.296Z,13.00
2022-09-26T06:55:10.071Z,13.00
2022-09-26T06:57:42.661Z,13.10
2022-09-26T07:00:15.768Z,13.20
2022-09-26T07:03:05.679Z,13.30
2022-09-26T07:05:56.342Z,13.30
2022-09-26T07:08:37.738Z,13.30
2022-09-26T07:11:34.751Z,13.30
2022-09-26T07:14:01.823Z,13.30
2022-09-26T07:16:30.394Z,13.30
2022-09-26T07:19:18.554Z,13.30
2022-09-26T07:22:06.646Z,13.30
2022-09-26T07:24:46.226Z,13.30
2022-09-26T07:27:13.138Z,13.30
2022-09-26T07:29:40.605Z,13.40
2022-09-26T07:32:07.632Z,13.40
2022-09-26T07:34:38.731Z,13.50
2022-09-26T07:37:05.745Z,13.60
2022-09-26T07:39:33.942Z,13.60
2022-09-26T07:42:03.647Z,13.70
2022-09-26T07:45:16.992Z,13.70
2022-09-26T07:47:35.880Z,13.80
2022-09-26T07:50:15.640Z,14.00
2022-09-26T07:52:57.390Z,14.10
2022-09-26T07:55:28.070Z,14.00
2022-09-26T07:58:13.558Z,14.00
2022-09-26T08:01:12.142Z,14.00
2022-09-26T08:03:58.406Z,13.90
2022-09-26T08:06:33.215Z,14.00
2022-09-26T08:09:00.500Z,13.90
2022-09-26T08:11:45.903Z,13.90
2022-09-26T08:14:21.333Z,13.80
2022-09-26T08:16:58.258Z,13.80
2022-09-26T08:19:25.943Z,13.80
2022-09-26T08:21:52.690Z,13.80
2022-09-26T08:24:20.210Z,13.80
2022-09-26T08:27:07.712Z,13.80
2022-09-26T08:29:38.390Z,13.80
2022-09-26T08:32:05.187Z,13.90
2022-09-26T08:34:35.004Z,13.90
2022-09-26T08:37:27.748Z,14.00
2022-09-26T08:40:13.616Z,14.00
2022-09-26T08:43:29.970Z,14.00
2022-09-26T08:46:59.570Z,14.00
2022-09-26T08:49:39.261Z,14.00
2022-09-26T08:52:33.208Z,14.10
2022-09-26T08:55:07.625Z,14.20
2022-09-26T08:57:55.140Z,14.00
2022-09-26T09:00:25.716Z,14.00
2022-09-26T09:03:06.635Z,13.90
2022-09-26T09:05:40.999Z,13.80
2022-09-26T09:08:22.088Z,13.80
2022-09-26T09:11:30.854Z,13.70
2022-09-26T09:14:22.493Z,13.70
2022-09-26T09:17:22.401Z,13.80
2022-09-26T09:19:59.971Z,13.70
2022-09-26T09:23:07.620Z,13.80
2022-09-26T09:29:22.042Z,13.80
2022-09-26T09:32:27.935Z,13.90
2022-09-26T09:35:40.076Z,13.90
2022-09-26T09:38:33.247Z,13.80
2022-09-26T09:41:16.403Z,13.90
2022-09-26T09:43:48.558Z,13.90
2022-09-26T09:46:27.603Z,14.00
2022-09-26T09:49:10.202Z,14.00
2022-09-26T09:52:02.391Z,14.00
2022-09-26T09:54:56.651Z,13.90
2022-09-26T09:57:49.326Z,13.90
2022-09-26T10:00:19.168Z,13.90
2022-09-26T10:03:03.894Z,13.90
2022-09-26T10:05:43.009Z,13.90
2022-09-26T10:08:22.502Z,13.90
2022-09-26T10:11:42.035Z,13.90
2022-09-26T10:14:39.447Z,13.80
2022-09-26T10:17:29.473Z,14.00
2022-09-26T10:20:10.101Z,14.00
2022-09-26T10:22:44.990Z,14.00
2022-09-26T10:25:25.805Z,14.00
2022-09-26T10:27:57.661Z,14.10
2022-09-26T10:30:33.271Z,14.10
2022-09-26T10:33:05.222Z,14.10
2022-09-26T10:35:52.661Z,14.20
2022-09-26T10:38:27.353Z,14.20
2022-09-26T10:41:03.531Z,14.20
2022-09-26T10:43:37.836Z,14.20
2022-09-26T10:46:17.814Z,14.20
2022-09-26T10:48:56.834Z,14.00
2022-09-26T10:51:45.107Z,13.90
2022-09-26T10:54:18.700Z,13.80
2022-09-26T10:56:50.764Z,13.70
2022-09-26T10:59:25.424Z,13.70
2022-09-26T11:01:56.461Z,13.60
2022-09-26T11:04:46.354Z,13.70
2022-09-26T11:07:37.678Z,13.70
2022-09-26T11:10:32.238Z,13.70
2022-09-26T11:13:18.628Z,13.90
2022-09-26T11:16:03.392Z,13.90
2022-09-26T11:18:45.243Z,13.90
2022-09-26T11:21:28.646Z,13.90
2022-09-26T11:24:14.722Z,14.10
2022-09-26T11:26:57.469Z,14.00
2022-09-26T11:29:36.546Z,14.00
2022-09-26T11:32:29.270Z,14.00
2022-09-26T11:35:03.602Z,14.20
2022-09-26T11:37:32.577Z,14.00
2022-09-26T11:40:11.557Z,14.00
2022-09-26T11:43:10.954Z,14.00
2022-09-26T11:46:15.280Z,14.00
2022-09-26T11:49:05.774Z,14.00
2022-09-26T11:52:22.443Z,14.00
2022-09-26T11:55:24.470Z,13.90
2022-09-26T11:58:03.995Z,13.90
2022-09-26T12:01:08.052Z,13.80
2022-09-26T12:04:02.485Z,13.80
2022-09-26T12:06:50.865Z,13.70
2022-09-26T12:09:18.530Z,13.70
2022-09-26T12:12:06.882Z,13.70
2022-09-26T12:14:53.871Z,13.70
2022-09-26T12:17:36.101Z,13.80
2022-09-26T12:20:34.357Z,13.80
2022-09-26T12:23:19.196Z,13.90
2022-09-26T12:26:01.174Z,14.00
2022-09-26T12:28:52.484Z,14.00
2022-09-26T12:31:33.466Z,14.00
2022-09-26T12:34:45.186Z,14.00
2022-09-26T12:37:14.225Z,13.90
2022-09-26T12:40:11.789Z,13.90
2022-09-26T12:43:15.846Z,13.80
2022-09-26T12:46:13.167Z,13.80
2022-09-26T12:49:27.661Z,14.00
2022-09-26T12:52:09.093Z,14.10
2022-09-26T12:54:48.300Z,14.30
2022-09-26T12:57:22.806Z,14.50
2022-09-26T13:00:21.547Z,14.30
2022-09-26T13:03:09.664Z,14.10
2022-09-26T13:05:54.620Z,14.00
2022-09-26T13:09:00.774Z,14.00
2022-09-26T13:11:39.560Z,13.90
2022-09-26T13:14:28.446Z,13.90
2022-09-26T13:17:06.789Z,13.90
2022-09-26T13:19:43.343Z,13.80
2022-09-26T13:22:36.951Z,13.80
2022-09-26T13:25:18.849Z,13.80
2022-09-26T13:28:05.019Z,13.80
2022-09-26T13:30:41.796Z,13.80
2022-09-26T13:33:34.283Z,13.80
2022-09-26T13:36:07.522Z,13.70
2022-09-26T13:38:53.335Z,13.80
2022-09-26T13:41:26.754Z,13.80
2022-09-26T13:44:22.968Z,13.90
2022-09-26T13:47:09.975Z,13.90
2022-09-26T13:49:58.141Z,13.90
2022-09-26T13:52:49.766Z,13.90
2022-09-26T13:55:20.300Z,13.90
2022-09-26T13:57:46.980Z,13.90
2022-09-26T14:00:33.764Z,13.90
2022-09-26T14:03:16.502Z,14.00
2022-09-26T14:05:44.011Z,14.00
2022-09-26T14:08:44.825Z,14.00
2022-09-26T14:11:42.837Z,13.90
2022-09-26T14:14:18.978Z,13.80
2022-09-26T14:16:54.434Z,13.80
2022-09-26T14:19:27.833Z,13.80
2022-09-26T14:22:25.057Z,13.70
2022-09-26T14:24:57.088Z,13.80
2022-09-26T14:27:28.346Z,13.90
2022-09-26T14:30:07.203Z,14.00
2022-09-26T14:32:45.913Z,14.10
2022-09-26T14:35:18.923Z,14.10
2022-09-26T14:37:50.797Z,14.30
2022-09-26T14:40:31.135Z,14.40
2022-09-26T14:43:04.784Z,14.40
2022-09-26T14:45:31.425Z,14.40
2022-09-26T14:48:16.745Z,14.40
2022-09-26T14:51:05.886Z,14.50
2022-09-26T14:53:40.689Z,14.70
2022-09-26T14:56:28.510Z,14.70
2022-09-26T14:59:24.290Z,14.80
2022-09-26T15:01:53.623Z,14.90
2022-09-26T15:04:25.533Z,15.00
2022-09-26T15:06:56.271Z,15.00
2022-09-26T15:09:40.647Z,15.10
2022-09-26T15:12:16.977Z,15.10
2022-09-26T15:14:52.741Z,15.00
2022-09-26T15:17:27.794Z,14.90
2022-09-26T15:19:57.546Z,14.70
2022-09-26T15:22:27.254Z,14.50
2022-09-26T15:24:55.537Z,14.50
2022-09-26T15:27:27.204Z,14.30
2022-09-26T15:29:57.791Z,14.20
2022-09-26T15:32:30.080Z,14.20
2022-09-26T15:34:59.698Z,14.10
2022-09-26T15:37:32.854Z,14.20
2022-09-26T15:40:18.498Z,14.00
2022-09-26T15:42:58.230Z,13.90
2022-09-26T15:45:30.516Z,13.90
2022-09-26T15:48:03.804Z,13.80
2022-09-26T15:50:49.012Z,13.80
2022-09-26T15:53:40.474Z,13.70
2022-09-26T15:56:10.052Z,13.70
2022-09-26T15:58:37.370Z,13.70
2022-09-26T16:01:05.864Z,13.80
2022-09-26T16:03:45.719Z,13.80
2022-09-26T16:06:34.192Z,13.70
2022-09-26T16:09:18.785Z,13.70
2022-09-26T16:12:09.387Z,13.60
2022-09-26T16:14:46.313Z,13.70
2022-09-26T16:17:28.113Z,13.70
2022-09-26T16:19:57.236Z,13.80
2022-09-26T16:22:27.070Z,13.90
2022-09-26T16:25:02.279Z,13.90
2022-09-26T16:27:34.300Z,13.90
2022-09-26T16:30:04.917Z,14.00
2022-09-26T16:32:32.281Z,14.20
2022-09-26T16:35:16.634Z,14.20
2022-09-26T16:37:43.632Z,14.40
2022-09-26T16:40:18.348Z,14.50
2022-09-26T16:42:46.400Z,14.50
2022-09-26T16:45:14.593Z,14.40
2022-09-26T16:47:44.905Z,14.30
2022-09-26T16:50:17.834Z,14.00
2022-09-26T16:52:45.852Z,14.10
2022-09-26T16:55:13.112Z,13.90
2022-09-26T16:58:01.636Z,13.80
2022-09-26T17:00:53.010Z,13.60
2022-09-26T17:03:21.712Z,13.50
2022-09-26T17:05:48.872Z,13.50
2022-09-26T17:08:17.289Z,13.40
2022-09-26T17:10:47.390Z,13.40
2022-09-26T17:13:23.998Z,13.70
2022-09-26T17:15:55.330Z,13.60
2022-09-26T17:18:28.916Z,13.50
2022-09-26T17:20:56.809Z,13.40
2022-09-26T17:23:41.887Z,13.40
2022-09-26T17:26:18.079Z,13.40
2022-09-26T17:28:45.379Z,13.40
2022-09-26T17:31:19.872Z,13.40
2022-09-26T17:33:52.279Z,13.30
2022-09-26T17:36:25.706Z,13.50
2022-09-26T17:38:53.340Z,13.20
2022-09-26T17:41:22.914Z,13.40
2022-09-26T17:44:00.029Z,13.50
2022-09-26T17:46:28.835Z,13.50
2022-09-26T17:48:56.230Z,13.50
2022-09-26T17:51:27.061Z,13.40
2022-09-26T17:53:57.261Z,13.30
2022-09-26T17:56:26.213Z,13.30
2022-09-26T17:58:54.134Z,13.30
2022-09-26T18:01:33.586Z,13.10
2022-09-26T18:04:07.042Z,13.10
2022-09-26T18:06:34.576Z,13.10
2022-09-26T18:09:10.003Z,13.00
2022-09-26T18:11:39.098Z,13.00
2022-09-26T18:14:08.651Z,13.00
2022-09-26T18:16:35.502Z,13.00
2022-09-26T18:19:07.052Z,13.00
2022-09-26T18:21:35.197Z,13.00
2022-09-26T18:24:06.378Z,13.00
2022-09-26T18:26:47.044Z,13.00
2022-09-26T18:29:17.775Z,13.00
2022-09-26T18:31:46.436Z,12.90
2022-09-26T18:34:20.302Z,13.00
2022-09-26T18:36:50.304Z,13.00
2022-09-26T18:39:26.932Z,12.90
2022-09-26T18:41:59.259Z,12.90
2022-09-26T18:44:27.431Z,12.80
2022-09-26T18:47:01.728Z,12.80
2022-09-26T18:49:37.511Z,12.70
2022-09-26T18:52:11.856Z,12.80
2022-09-26T18:54:38.875Z,12.80
2022-09-26T18:57:32.565Z,12.80
2022-09-26T19:00:01.757Z,12.80
2022-09-26T19:02:35.406Z,12.70
2022-09-26T19:05:03.156Z,12.60
2022-09-26T19:07:33.451Z,12.70
2022-09-26T19:10:00.734Z,12.70
2022-09-26T19:12:27.647Z,12.70
2022-09-26T19:14:54.398Z,12.70
2022-09-26T19:17:21.342Z,12.70
2022-09-26T19:19:48.115Z,12.70
2022-09-26T19:22:17.304Z,12.60
2022-09-26T19:24:48.653Z,12.60
2022-09-26T19:27:18.545Z,12.60
2022-09-26T19:29:53.743Z,12.60
2022-09-26T19:32:23.367Z,12.70
2022-09-26T19:34:55.458Z,12.90
2022-09-26T19:37:22.319Z,12.70
2022-09-26T19:39:49.213Z,12.80
2022-09-26T19:42:16.083Z,12.80
2022-09-26T19:44:43.084Z,12.80
2022-09-26T19:47:21.920Z,12.90
2022-09-26T19:49:51.925Z,12.80
2022-09-26T19:52:20.780Z,12.70
2022-09-26T19:54:48.741Z,12.60
2022-09-26T19:57:17.622Z,12.70
2022-09-26T19:59:45.817Z,12.60
2022-09-26T20:02:22.442Z,12.50
2022-09-26T20:04:50.399Z,12.60
2022-09-26T20:07:19.177Z,12.50
2022-09-26T20:09:46.879Z,12.60
2022-09-26T20:12:13.851Z,12.50
2022-09-26T20:14:40.775Z,12.50
2022-09-26T20:17:17.771Z,12.30
2022-09-26T20:19:48.534Z,12.30
2022-09-26T20:22:21.703Z,11.90
2022-09-26T20:24:53.586Z,11.90
2022-09-26T20:27:26.329Z,11.80
2022-09-26T20:30:30.066Z,11.80
2022-09-26T20:32:57.158Z,11.70
2022-09-26T20:35:24.220Z,11.80
2022-09-26T20:37:52.191Z,11.70
2022-09-26T20:40:22.621Z,11.80
2022-09-26T20:42:56.014Z,11.70
2022-09-26T20:45:43.966Z,11.70
2022-09-26T20:48:22.761Z,11.70
2022-09-26T20:50:56.546Z,11.70
2022-09-26T20:53:26.886Z,11.70
2022-09-26T20:55:55.265Z,11.70
2022-09-26T20:58:22.666Z,11.90
2022-09-26T21:00:50.219Z,11.80
2022-09-26T21:03:21.795Z,11.70
2022-09-26T21:05:48.728Z,11.60
2022-09-26T21:08:35.881Z,11.50
2022-09-26T21:11:05.950Z,11.40
2022-09-26T21:13:32.784Z,11.40
2022-09-26T21:15:59.820Z,11.30
2022-09-26T21:18:29.136Z,11.40
2022-09-26T21:21:03.904Z,11.40
2022-09-26T21:24:21.561Z,11.50
2022-09-26T21:26:51.169Z,11.40
2022-09-26T21:29:18.266Z,11.40
2022-09-26T21:31:49.455Z,11.40
2022-09-26T21:34:26.204Z,11.30
2022-09-26T21:36:55.975Z,11.30
2022-09-26T21:39:24.638Z,11.30
2022-09-26T21:41:55.630Z,11.20
2022-09-26T21:44:36.807Z,11.20
2022-09-26T21:47:03.940Z,11.20
2022-09-26T21:49:31.270Z,11.10
2022-09-26T21:52:15.058Z,11.10
2022-09-26T21:54:44.730Z,11.10
2022-09-26T21:57:25.799Z,11.10
2022-09-26T21:59:53.562Z,11.10
2022-09-26T22:02:20.589Z,11.10
2022-09-26T22:04:47.863Z,11.20
2022-09-26T22:07:14.892Z,11.20
2022-09-26T22:09:42.442Z,11.40
2022-09-26T22:12:09.236Z,11.40
2022-09-26T22:14:36.148Z,11.40
2022-09-26T22:17:03.009Z,11.50
2022-09-26T22:19:33.347Z,11.60
2022-09-26T22:22:01.286Z,11.60
2022-09-26T22:24:28.615Z,11.60
2022-09-26T22:26:55.486Z,11.30
2022-09-26T22:29:23.372Z,11.30
2022-09-26T22:31:51.684Z,11.30
2022-09-26T22:34:19.398Z,11.30
2022-09-26T22:36:46.215Z,11.30
2022-09-26T22:39:13.095Z,11.30
2022-09-26T22:41:39.926Z,11.30
2022-09-26T22:44:06.818Z,11.20
2022-09-26T22:46:35.302Z,11.30
2022-09-26T22:49:06.595Z,11.30
2022-09-26T22:51:39.737Z,11.30
2022-09-26T22:54:06.588Z,11.30
2022-09-26T22:56:33.401Z,11.30
2022-09-26T22:59:02.857Z,11.20
2022-09-26T23:01:29.935Z,11.20
2022-09-26T23:04:00.370Z,11.20
2022-09-26T23:06:27.865Z,11.20
2022-09-26T23:08:56.127Z,11.20
2022-09-26T23:11:24.198Z,11.30
2022-09-26T23:13:52.491Z,11.20
2022-09-26T23:16:25.183Z,11.20
2022-09-26T23:18:52.438Z,11.30
2022-09-26T23:21:24.416Z,11.10
2022-09-26T23:23:57.169Z,11.10
2022-09-26T23:26:27.272Z,11.10
2022-09-26T23:28:56.580Z,11.00
2022-09-26T23:31:25.109Z,11.00
2022-09-26T23:33:55.391Z,11.30
2022-09-26T23:36:22.936Z,11.20
2022-09-26T23:38:49.976Z,11.30
2022-09-26T23:41:17.526Z,11.30
2022-09-26T23:43:46.307Z,11.20
2022-09-26T23:46:13.722Z,11.10
2022-09-26T23:48:40.651Z,11.10
2022-09-26T23:51:08.150Z,11.10
2022-09-26T23:53:35.624Z,11.10
2022-09-26T23:56:07.260Z,11.10
2022-09-26T23:58:34.206Z,11.10
